sensor_id;sensor_type;location;lat;lon;timestamp;pressure;altitude;pressure_sealevel;temperature;humidity
74905;BME280;63465;50.862;6.220;2023-10-09T00:00:50;100465.06;;;17.53;100.00
74905;BME280;63465;50.862;6.220;2023-10-09T00:03:17;100465.91;;;17.53;100.00
74905;BME280;63465;50.862;6.220;2023-10-09T00:05:43;100478.47;;;17.53;100.00
74905;BME280;63465;50.862;6.220;2023-10-09T00:08:12;100477.31;;;17.57;100.00
74905;BME280;63465;50.862;6.220;2023-10-09T00:10:57;100478.19;;;17.57;100.00
74905;BME280;63465;50.862;6.220;2023-10-09T00:13:39;100474.16;;;17.50;100.00
74905;BME280;63465;50.862;6.220;2023-10-09T00:16:15;100476.00;;;17.50;100.00
74905;BME280;63465;50.862;6.220;2023-10-09T00:18:49;100470.28;;;17.41;100.00
74905;BME280;63465;50.862;6.220;2023-10-09T00:21:19;100467.03;;;17.36;100.00
74905;BME280;63465;50.862;6.220;2023-10-09T00:23:48;100466.91;;;17.38;100.00
74905;BME280;63465;50.862;6.220;2023-10-09T00:26:25;100466.06;;;17.37;100.00
74905;BME280;63465;50.862;6.220;2023-10-09T00:28:51;100468.41;;;17.29;100.00
74905;BME280;63465;50.862;6.220;2023-10-09T00:31:17;100454.22;;;17.27;100.00
74905;BME280;63465;50.862;6.220;2023-10-09T00:33:55;100458.38;;;17.18;100.00
74905;BME280;63465;50.862;6.220;2023-10-09T00:36:20;100451.19;;;17.04;100.00
74905;BME280;63465;50.862;6.220;2023-10-09T00:38:53;100451.66;;;17.11;100.00
74905;BME280;63465;50.862;6.220;2023-10-09T00:41:19;100447.56;;;17.05;100.00
74905;BME280;63465;50.862;6.220;2023-10-09T00:43:46;100458.88;;;16.96;100.00
74905;BME280;63465;50.862;6.220;2023-10-09T00:46:16;100451.47;;;17.00;100.00
74905;BME280;63465;50.862;6.220;2023-10-09T00:48:49;100458.50;;;16.88;100.00
74905;BME280;63465;50.862;6.220;2023-10-09T00:51:18;100451.41;;;16.87;100.00
74905;BME280;63465;50.862;6.220;2023-10-09T00:53:45;100449.00;;;16.82;100.00
74905;BME280;63465;50.862;6.220;2023-10-09T00:56:15;100444.22;;;16.87;100.00
74905;BME280;63465;50.862;6.220;2023-10-09T00:58:46;100446.97;;;16.86;100.00
74905;BME280;63465;50.862;6.220;2023-10-09T01:01:12;100450.72;;;16.83;100.00
74905;BME280;63465;50.862;6.220;2023-10-09T01:03:42;100445.25;;;16.85;100.00
74905;BME280;63465;50.862;6.220;2023-10-09T01:06:10;100452.94;;;16.91;100.00
74905;BME280;63465;50.862;6.220;2023-10-09T01:08:38;100438.91;;;16.86;100.00
74905;BME280;63465;50.862;6.220;2023-10-09T01:11:13;100432.06;;;16.82;100.00
74905;BME280;63465;50.862;6.220;2023-10-09T01:13:47;100419.69;;;16.79;100.00
74905;BME280;63465;50.862;6.220;2023-10-09T01:16:13;100430.13;;;16.84;100.00
74905;BME280;63465;50.862;6.220;2023-10-09T01:18:46;100424.00;;;16.96;100.00
74905;BME280;63465;50.862;6.220;2023-10-09T01:21:15;100437.88;;;17.03;100.00
74905;BME280;63465;50.862;6.220;2023-10-09T01:23:41;100429.91;;;17.16;100.00
74905;BME280;63465;50.862;6.220;2023-10-09T01:26:24;100416.13;;;17.07;100.00
74905;BME280;63465;50.862;6.220;2023-10-09T01:28:50;100419.84;;;17.19;100.00
74905;BME280;63465;50.862;6.220;2023-10-09T01:31:15;100420.81;;;17.18;100.00
74905;BME280;63465;50.862;6.220;2023-10-09T01:33:40;100415.56;;;17.17;100.00
74905;BME280;63465;50.862;6.220;2023-10-09T01:36:07;100406.22;;;17.22;100.00
74905;BME280;63465;50.862;6.220;2023-10-09T01:38:35;100409.72;;;17.37;100.00
74905;BME280;63465;50.862;6.220;2023-10-09T01:41:12;100403.22;;;17.41;100.00
74905;BME280;63465;50.862;6.220;2023-10-09T01:43:41;100403.84;;;17.45;100.00
74905;BME280;63465;50.862;6.220;2023-10-09T01:46:10;100391.28;;;17.45;100.00
74905;BME280;63465;50.862;6.220;2023-10-09T01:48:36;100388.19;;;17.52;100.00
74905;BME280;63465;50.862;6.220;2023-10-09T01:51:05;100394.53;;;17.51;100.00
74905;BME280;63465;50.862;6.220;2023-10-09T01:53:30;100392.09;;;17.60;100.00
74905;BME280;63465;50.862;6.220;2023-10-09T01:55:56;100396.31;;;17.64;100.00
74905;BME280;63465;50.862;6.220;2023-10-09T01:58:24;100390.50;;;17.71;100.00
74905;BME280;63465;50.862;6.220;2023-10-09T02:00:53;100389.75;;;17.69;100.00
74905;BME280;63465;50.862;6.220;2023-10-09T02:03:22;100394.88;;;17.59;100.00
74905;BME280;63465;50.862;6.220;2023-10-09T02:06:01;100397.25;;;17.63;100.00
74905;BME280;63465;50.862;6.220;2023-10-09T02:08:42;100408.63;;;17.67;100.00
74905;BME280;63465;50.862;6.220;2023-10-09T02:11:14;100417.00;;;17.62;100.00
74905;BME280;63465;50.862;6.220;2023-10-09T02:13:49;100401.09;;;17.59;100.00
74905;BME280;63465;50.862;6.220;2023-10-09T02:16:19;100399.84;;;17.65;100.00
74905;BME280;63465;50.862;6.220;2023-10-09T02:18:53;100394.25;;;17.68;100.00
74905;BME280;63465;50.862;6.220;2023-10-09T02:21:21;100393.53;;;17.79;100.00
74905;BME280;63465;50.862;6.220;2023-10-09T02:24:02;100395.88;;;17.71;100.00
74905;BME280;63465;50.862;6.220;2023-10-09T02:26:34;100404.56;;;17.74;100.00
74905;BME280;63465;50.862;6.220;2023-10-09T02:29:18;100398.66;;;17.69;100.00
74905;BME280;63465;50.862;6.220;2023-10-09T02:31:43;100406.94;;;17.79;100.00
74905;BME280;63465;50.862;6.220;2023-10-09T02:34:12;100407.84;;;17.79;100.00
74905;BME280;63465;50.862;6.220;2023-10-09T02:36:38;100408.09;;;17.75;100.00
74905;BME280;63465;50.862;6.220;2023-10-09T02:39:07;100412.41;;;17.92;100.00
74905;BME280;63465;50.862;6.220;2023-10-09T02:41:46;100414.09;;;17.65;100.00
74905;BME280;63465;50.862;6.220;2023-10-09T02:44:15;100400.38;;;17.70;100.00
74905;BME280;63465;50.862;6.220;2023-10-09T02:46:41;100402.84;;;17.73;100.00
74905;BME280;63465;50.862;6.220;2023-10-09T02:49:06;100402.03;;;17.86;100.00
74905;BME280;63465;50.862;6.220;2023-10-09T02:51:34;100400.72;;;17.78;100.00
74905;BME280;63465;50.862;6.220;2023-10-09T02:54:06;100397.94;;;17.80;100.00
74905;BME280;63465;50.862;6.220;2023-10-09T02:56:52;100390.31;;;17.87;100.00
74905;BME280;63465;50.862;6.220;2023-10-09T02:59:30;100398.16;;;17.77;100.00
74905;BME280;63465;50.862;6.220;2023-10-09T03:01:56;100395.91;;;17.83;100.00
74905;BME280;63465;50.862;6.220;2023-10-09T03:04:22;100396.88;;;17.82;100.00
74905;BME280;63465;50.862;6.220;2023-10-09T03:06:48;100393.41;;;17.80;100.00
74905;BME280;63465;50.862;6.220;2023-10-09T03:09:18;100390.19;;;17.75;100.00
74905;BME280;63465;50.862;6.220;2023-10-09T03:11:48;100402.63;;;17.76;100.00
74905;BME280;63465;50.862;6.220;2023-10-09T03:14:18;100400.84;;;17.77;100.00
74905;BME280;63465;50.862;6.220;2023-10-09T03:16:45;100404.69;;;17.73;100.00
74905;BME280;63465;50.862;6.220;2023-10-09T03:19:13;100398.78;;;17.68;100.00
74905;BME280;63465;50.862;6.220;2023-10-09T03:21:38;100402.94;;;17.72;100.00
74905;BME280;63465;50.862;6.220;2023-10-09T03:24:04;100393.31;;;17.69;100.00
74905;BME280;63465;50.862;6.220;2023-10-09T03:26:30;100388.47;;;17.61;100.00
74905;BME280;63465;50.862;6.220;2023-10-09T03:28:56;100398.19;;;17.62;100.00
74905;BME280;63465;50.862;6.220;2023-10-09T03:31:26;100392.19;;;17.59;100.00
74905;BME280;63465;50.862;6.220;2023-10-09T03:33:52;100387.88;;;17.56;100.00
74905;BME280;63465;50.862;6.220;2023-10-09T03:36:17;100387.38;;;17.64;100.00
74905;BME280;63465;50.862;6.220;2023-10-09T03:38:42;100381.56;;;17.57;100.00
74905;BME280;63465;50.862;6.220;2023-10-09T03:41:09;100376.41;;;17.54;100.00
74905;BME280;63465;50.862;6.220;2023-10-09T03:43:38;100385.63;;;17.50;100.00
74905;BME280;63465;50.862;6.220;2023-10-09T03:46:07;100377.66;;;17.48;100.00
74905;BME280;63465;50.862;6.220;2023-10-09T03:48:46;100379.41;;;17.50;100.00
74905;BME280;63465;50.862;6.220;2023-10-09T03:51:13;100378.19;;;17.41;100.00
74905;BME280;63465;50.862;6.220;2023-10-09T03:53:50;100374.13;;;17.48;100.00
74905;BME280;63465;50.862;6.220;2023-10-09T03:56:16;100381.34;;;17.47;100.00
74905;BME280;63465;50.862;6.220;2023-10-09T03:58:44;100380.44;;;17.47;100.00
74905;BME280;63465;50.862;6.220;2023-10-09T04:01:17;100383.44;;;17.42;100.00
74905;BME280;63465;50.862;6.220;2023-10-09T04:03:59;100383.66;;;17.39;100.00
74905;BME280;63465;50.862;6.220;2023-10-09T04:06:26;100380.22;;;17.37;100.00
74905;BME280;63465;50.862;6.220;2023-10-09T04:08:56;100383.84;;;17.36;100.00
74905;BME280;63465;50.862;6.220;2023-10-09T04:11:23;100378.78;;;17.32;100.00
74905;BME280;63465;50.862;6.220;2023-10-09T04:13:50;100376.41;;;17.27;100.00
74905;BME280;63465;50.862;6.220;2023-10-09T04:16:17;100383.91;;;17.22;100.00
74905;BME280;63465;50.862;6.220;2023-10-09T04:18:55;100379.31;;;17.24;100.00
74905;BME280;63465;50.862;6.220;2023-10-09T04:21:25;100375.03;;;17.21;100.00
74905;BME280;63465;50.862;6.220;2023-10-09T04:24:00;100379.72;;;17.18;100.00
74905;BME280;63465;50.862;6.220;2023-10-09T04:26:36;100385.06;;;17.18;100.00
74905;BME280;63465;50.862;6.220;2023-10-09T04:29:03;100372.03;;;17.26;100.00
74905;BME280;63465;50.862;6.220;2023-10-09T04:31:29;100381.34;;;17.20;100.00
74905;BME280;63465;50.862;6.220;2023-10-09T04:33:59;100391.22;;;17.20;100.00
74905;BME280;63465;50.862;6.220;2023-10-09T04:36:51;100399.66;;;17.14;100.00
74905;BME280;63465;50.862;6.220;2023-10-09T04:39:22;100395.81;;;17.18;100.00
74905;BME280;63465;50.862;6.220;2023-10-09T04:41:57;100387.22;;;17.13;100.00
74905;BME280;63465;50.862;6.220;2023-10-09T04:44:41;100380.31;;;17.08;100.00
74905;BME280;63465;50.862;6.220;2023-10-09T04:47:35;100391.72;;;17.12;100.00
74905;BME280;63465;50.862;6.220;2023-10-09T04:50:09;100376.69;;;17.09;100.00
74905;BME280;63465;50.862;6.220;2023-10-09T04:53:03;100369.50;;;17.10;100.00
74905;BME280;63465;50.862;6.220;2023-10-09T04:55:41;100386.53;;;17.09;100.00
74905;BME280;63465;50.862;6.220;2023-10-09T04:58:09;100387.41;;;17.09;100.00
74905;BME280;63465;50.862;6.220;2023-10-09T05:00:39;100369.59;;;17.08;100.00
74905;BME280;63465;50.862;6.220;2023-10-09T05:03:07;100378.78;;;17.04;100.00
74905;BME280;63465;50.862;6.220;2023-10-09T05:05:37;100376.00;;;17.06;100.00
74905;BME280;63465;50.862;6.220;2023-10-09T05:08:11;100377.94;;;17.04;100.00
74905;BME280;63465;50.862;6.220;2023-10-09T05:10:54;100373.41;;;17.04;100.00
74905;BME280;63465;50.862;6.220;2023-10-09T05:13:30;100365.69;;;17.00;100.00
74905;BME280;63465;50.862;6.220;2023-10-09T05:16:18;100366.88;;;16.96;100.00
74905;BME280;63465;50.862;6.220;2023-10-09T05:18:46;100362.75;;;16.90;100.00
74905;BME280;63465;50.862;6.220;2023-10-09T05:21:29;100362.94;;;16.87;100.00
74905;BME280;63465;50.862;6.220;2023-10-09T05:23:55;100353.75;;;16.91;100.00
74905;BME280;63465;50.862;6.220;2023-10-09T05:26:45;100350.19;;;16.90;100.00
74905;BME280;63465;50.862;6.220;2023-10-09T05:29:20;100334.22;;;16.89;100.00
74905;BME280;63465;50.862;6.220;2023-10-09T05:31:58;100349.38;;;17.03;100.00
74905;BME280;63465;50.862;6.220;2023-10-09T05:34:41;100351.44;;;16.99;100.00
74905;BME280;63465;50.862;6.220;2023-10-09T05:37:29;100359.88;;;16.93;100.00
74905;BME280;63465;50.862;6.220;2023-10-09T05:40:00;100350.38;;;17.02;100.00
74905;BME280;63465;50.862;6.220;2023-10-09T05:42:35;100358.63;;;16.99;100.00
74905;BME280;63465;50.862;6.220;2023-10-09T05:47:49;100365.03;;;16.96;100.00
74905;BME280;63465;50.862;6.220;2023-10-09T05:50:33;100371.75;;;16.89;100.00
74905;BME280;63465;50.862;6.220;2023-10-09T05:52:59;100370.69;;;16.91;100.00
74905;BME280;63465;50.862;6.220;2023-10-09T05:55:42;100361.28;;;16.84;100.00
74905;BME280;63465;50.862;6.220;2023-10-09T05:58:26;100353.97;;;16.88;100.00
74905;BME280;63465;50.862;6.220;2023-10-09T06:01:12;100357.94;;;16.81;100.00
74905;BME280;63465;50.862;6.220;2023-10-09T06:04:07;100360.44;;;16.84;100.00
74905;BME280;63465;50.862;6.220;2023-10-09T06:06:43;100356.03;;;16.83;100.00
74905;BME280;63465;50.862;6.220;2023-10-09T06:09:21;100363.41;;;16.79;100.00
74905;BME280;63465;50.862;6.220;2023-10-09T06:11:49;100361.88;;;16.75;100.00
74905;BME280;63465;50.862;6.220;2023-10-09T06:14:22;100359.97;;;16.77;100.00
74905;BME280;63465;50.862;6.220;2023-10-09T06:17:11;100366.28;;;16.76;100.00
74905;BME280;63465;50.862;6.220;2023-10-09T06:19:37;100359.59;;;16.69;100.00
74905;BME280;63465;50.862;6.220;2023-10-09T06:22:08;100372.09;;;16.83;100.00
74905;BME280;63465;50.862;6.220;2023-10-09T06:24:38;100381.88;;;16.84;100.00
74905;BME280;63465;50.862;6.220;2023-10-09T06:27:04;100382.28;;;16.77;100.00
74905;BME280;63465;50.862;6.220;2023-10-09T06:29:29;100379.28;;;16.82;100.00
74905;BME280;63465;50.862;6.220;2023-10-09T06:32:17;100364.34;;;16.78;100.00
74905;BME280;63465;50.862;6.220;2023-10-09T06:34:59;100362.38;;;16.82;100.00
74905;BME280;63465;50.862;6.220;2023-10-09T06:37:44;100355.28;;;16.81;100.00
74905;BME280;63465;50.862;6.220;2023-10-09T06:40:35;100346.94;;;16.85;100.00
74905;BME280;63465;50.862;6.220;2023-10-09T06:43:20;100356.03;;;16.83;100.00
74905;BME280;63465;50.862;6.220;2023-10-09T06:45:48;100382.56;;;16.87;100.00
74905;BME280;63465;50.862;6.220;2023-10-09T06:48:26;100413.50;;;16.93;100.00
74905;BME280;63465;50.862;6.220;2023-10-09T06:51:08;100411.25;;;17.00;100.00
74905;BME280;63465;50.862;6.220;2023-10-09T06:53:52;100415.56;;;17.02;100.00
74905;BME280;63465;50.862;6.220;2023-10-09T06:56:21;100414.03;;;16.98;100.00
74905;BME280;63465;50.862;6.220;2023-10-09T06:58:50;100416.72;;;16.98;100.00
74905;BME280;63465;50.862;6.220;2023-10-09T07:01:21;100417.31;;;17.03;100.00
74905;BME280;63465;50.862;6.220;2023-10-09T07:03:53;100422.28;;;17.09;100.00
74905;BME280;63465;50.862;6.220;2023-10-09T07:06:25;100433.53;;;17.15;100.00
74905;BME280;63465;50.862;6.220;2023-10-09T07:09:03;100426.94;;;17.20;100.00
74905;BME280;63465;50.862;6.220;2023-10-09T07:11:35;100436.81;;;17.20;100.00
74905;BME280;63465;50.862;6.220;2023-10-09T07:16:54;100446.75;;;17.18;100.00
74905;BME280;63465;50.862;6.220;2023-10-09T07:19:31;100439.41;;;17.21;100.00
74905;BME280;63465;50.862;6.220;2023-10-09T07:22:03;100449.00;;;17.11;100.00
74905;BME280;63465;50.862;6.220;2023-10-09T07:24:32;100450.41;;;17.17;100.00
74905;BME280;63465;50.862;6.220;2023-10-09T07:27:11;100442.38;;;17.17;100.00
74905;BME280;63465;50.862;6.220;2023-10-09T07:29:42;100438.72;;;17.18;100.00
74905;BME280;63465;50.862;6.220;2023-10-09T07:32:14;100448.59;;;17.17;100.00
74905;BME280;63465;50.862;6.220;2023-10-09T07:34:46;100459.31;;;17.17;100.00
74905;BME280;63465;50.862;6.220;2023-10-09T07:37:26;100462.44;;;17.24;100.00
74905;BME280;63465;50.862;6.220;2023-10-09T07:40:02;100449.91;;;17.24;100.00
74905;BME280;63465;50.862;6.220;2023-10-09T07:42:32;100442.28;;;17.18;100.00
74905;BME280;63465;50.862;6.220;2023-10-09T07:45:01;100450.56;;;17.28;100.00
74905;BME280;63465;50.862;6.220;2023-10-09T07:47:37;100441.78;;;17.26;100.00
74905;BME280;63465;50.862;6.220;2023-10-09T07:50:27;100437.16;;;17.28;100.00
74905;BME280;63465;50.862;6.220;2023-10-09T07:53:14;100432.25;;;17.35;100.00
74905;BME280;63465;50.862;6.220;2023-10-09T07:56:06;100436.22;;;17.29;100.00
74905;BME280;63465;50.862;6.220;2023-10-09T07:58:32;100430.94;;;17.27;100.00
74905;BME280;63465;50.862;6.220;2023-10-09T08:01:11;100436.66;;;17.36;100.00
74905;BME280;63465;50.862;6.220;2023-10-09T08:04:01;100444.06;;;17.32;100.00
74905;BME280;63465;50.862;6.220;2023-10-09T08:06:48;100463.53;;;17.48;100.00
74905;BME280;63465;50.862;6.220;2023-10-09T08:09:13;100472.16;;;17.54;100.00
74905;BME280;63465;50.862;6.220;2023-10-09T08:11:40;100458.25;;;17.47;100.00
74905;BME280;63465;50.862;6.220;2023-10-09T08:14:11;100461.16;;;17.44;100.00
74905;BME280;63465;50.862;6.220;2023-10-09T08:16:46;100443.16;;;17.46;100.00
74905;BME280;63465;50.862;6.220;2023-10-09T08:19:12;100446.28;;;17.53;100.00
74905;BME280;63465;50.862;6.220;2023-10-09T08:22:06;100441.56;;;17.56;100.00
74905;BME280;63465;50.862;6.220;2023-10-09T08:24:50;100435.38;;;17.69;100.00
74905;BME280;63465;50.862;6.220;2023-10-09T08:27:28;100446.25;;;17.80;100.00
74905;BME280;63465;50.862;6.220;2023-10-09T08:30:14;100446.06;;;17.83;100.00
74905;BME280;63465;50.862;6.220;2023-10-09T08:32:42;100449.59;;;17.83;100.00
74905;BME280;63465;50.862;6.220;2023-10-09T08:35:11;100444.00;;;17.74;100.00
74905;BME280;63465;50.862;6.220;2023-10-09T08:37:58;100447.63;;;17.73;100.00
74905;BME280;63465;50.862;6.220;2023-10-09T08:40:36;100436.69;;;17.76;100.00
74905;BME280;63465;50.862;6.220;2023-10-09T08:43:21;100420.16;;;17.69;100.00
74905;BME280;63465;50.862;6.220;2023-10-09T08:45:53;100410.06;;;17.73;100.00
74905;BME280;63465;50.862;6.220;2023-10-09T08:48:19;100412.31;;;17.79;100.00
74905;BME280;63465;50.862;6.220;2023-10-09T08:50:48;100419.84;;;17.87;100.00
74905;BME280;63465;50.862;6.220;2023-10-09T08:53:15;100411.75;;;18.01;100.00
74905;BME280;63465;50.862;6.220;2023-10-09T08:55:42;100412.94;;;18.10;100.00
74905;BME280;63465;50.862;6.220;2023-10-09T08:58:09;100410.81;;;18.15;100.00
74905;BME280;63465;50.862;6.220;2023-10-09T09:01:04;100413.91;;;18.34;100.00
74905;BME280;63465;50.862;6.220;2023-10-09T09:03:39;100413.06;;;18.34;100.00
74905;BME280;63465;50.862;6.220;2023-10-09T09:06:09;100417.69;;;18.58;100.00
74905;BME280;63465;50.862;6.220;2023-10-09T09:08:35;100430.34;;;18.68;100.00
74905;BME280;63465;50.862;6.220;2023-10-09T09:11:15;100417.53;;;18.72;100.00
74905;BME280;63465;50.862;6.220;2023-10-09T09:14:02;100417.97;;;18.92;100.00
74905;BME280;63465;50.862;6.220;2023-10-09T09:16:44;100399.88;;;18.94;100.00
74905;BME280;63465;50.862;6.220;2023-10-09T09:19:14;100411.69;;;19.04;100.00
74905;BME280;63465;50.862;6.220;2023-10-09T09:21:48;100406.94;;;19.07;100.00
74905;BME280;63465;50.862;6.220;2023-10-09T09:24:14;100396.28;;;19.19;100.00
74905;BME280;63465;50.862;6.220;2023-10-09T09:26:46;100396.47;;;19.40;100.00
74905;BME280;63465;50.862;6.220;2023-10-09T09:29:15;100400.41;;;19.71;100.00
74905;BME280;63465;50.862;6.220;2023-10-09T09:31:54;100400.53;;;19.70;100.00
74905;BME280;63465;50.862;6.220;2023-10-09T09:34:20;100397.72;;;20.18;100.00
74905;BME280;63465;50.862;6.220;2023-10-09T09:36:55;100391.38;;;20.08;100.00
74905;BME280;63465;50.862;6.220;2023-10-09T09:39:22;100377.16;;;20.40;100.00
74905;BME280;63465;50.862;6.220;2023-10-09T09:42:00;100385.28;;;20.85;100.00
74905;BME280;63465;50.862;6.220;2023-10-09T09:44:39;100386.75;;;20.78;100.00
74905;BME280;63465;50.862;6.220;2023-10-09T09:47:14;100381.56;;;21.09;100.00
74905;BME280;63465;50.862;6.220;2023-10-09T09:49:51;100383.78;;;21.80;100.00
74905;BME280;63465;50.862;6.220;2023-10-09T09:52:36;100376.25;;;21.83;100.00
74905;BME280;63465;50.862;6.220;2023-10-09T09:55:08;100364.75;;;22.02;100.00
74905;BME280;63465;50.862;6.220;2023-10-09T09:57:40;100359.25;;;22.35;100.00
74905;BME280;63465;50.862;6.220;2023-10-09T10:00:08;100354.44;;;22.89;100.00
74905;BME280;63465;50.862;6.220;2023-10-09T10:02:51;100354.06;;;22.01;100.00
74905;BME280;63465;50.862;6.220;2023-10-09T10:05:21;100331.47;;;21.81;100.00
74905;BME280;63465;50.862;6.220;2023-10-09T10:07:47;100343.16;;;22.12;100.00
74905;BME280;63465;50.862;6.220;2023-10-09T10:13:15;100327.88;;;22.01;100.00
74905;BME280;63465;50.862;6.220;2023-10-09T10:18:22;100328.06;;;22.31;100.00
74905;BME280;63465;50.862;6.220;2023-10-09T10:21:10;100323.16;;;21.94;100.00
74905;BME280;63465;50.862;6.220;2023-10-09T10:23:59;100319.00;;;22.20;100.00
74905;BME280;63465;50.862;6.220;2023-10-09T10:26:31;100322.88;;;21.97;100.00
74905;BME280;63465;50.862;6.220;2023-10-09T10:29:18;100324.31;;;22.53;100.00
74905;BME280;63465;50.862;6.220;2023-10-09T10:31:55;100306.50;;;21.88;100.00
74905;BME280;63465;50.862;6.220;2023-10-09T10:34:23;100307.88;;;21.83;100.00
74905;BME280;63465;50.862;6.220;2023-10-09T10:36:50;100312.09;;;22.06;100.00
74905;BME280;63465;50.862;6.220;2023-10-09T10:39:24;100312.19;;;22.16;100.00
74905;BME280;63465;50.862;6.220;2023-10-09T10:42:08;100313.78;;;22.29;100.00
74905;BME280;63465;50.862;6.220;2023-10-09T10:45:01;100311.22;;;21.96;100.00
74905;BME280;63465;50.862;6.220;2023-10-09T10:47:27;100300.22;;;22.19;100.00
74905;BME280;63465;50.862;6.220;2023-10-09T10:50:06;100308.78;;;22.24;100.00
74905;BME280;63465;50.862;6.220;2023-10-09T10:52:51;100301.13;;;22.29;100.00
74905;BME280;63465;50.862;6.220;2023-10-09T10:55:23;100315.72;;;21.86;100.00
74905;BME280;63465;50.862;6.220;2023-10-09T10:58:17;100303.91;;;21.87;100.00
74905;BME280;63465;50.862;6.220;2023-10-09T11:00:55;100314.31;;;21.91;100.00
74905;BME280;63465;50.862;6.220;2023-10-09T11:03:25;100303.47;;;22.13;100.00
74905;BME280;63465;50.862;6.220;2023-10-09T11:06:09;100307.06;;;21.92;100.00
74905;BME280;63465;50.862;6.220;2023-10-09T11:08:47;100307.06;;;21.92;100.00
74905;BME280;63465;50.862;6.220;2023-10-09T11:11:20;100310.69;;;22.02;100.00
74905;BME280;63465;50.862;6.220;2023-10-09T11:13:45;100301.41;;;21.95;100.00
74905;BME280;63465;50.862;6.220;2023-10-09T11:16:19;100317.09;;;22.11;100.00
74905;BME280;63465;50.862;6.220;2023-10-09T11:19:08;100328.66;;;22.13;100.00
74905;BME280;63465;50.862;6.220;2023-10-09T11:21:52;100331.19;;;22.36;100.00
74905;BME280;63465;50.862;6.220;2023-10-09T11:24:38;100339.22;;;22.16;100.00
74905;BME280;63465;50.862;6.220;2023-10-09T11:27:06;100342.50;;;22.30;100.00
74905;BME280;63465;50.862;6.220;2023-10-09T11:29:36;100341.03;;;22.16;100.00
74905;BME280;63465;50.862;6.220;2023-10-09T11:32:08;100352.59;;;22.18;100.00
74905;BME280;63465;50.862;6.220;2023-10-09T11:34:43;100346.44;;;22.37;100.00
74905;BME280;63465;50.862;6.220;2023-10-09T11:37:17;100345.34;;;22.49;100.00
74905;BME280;63465;50.862;6.220;2023-10-09T11:39:56;100354.47;;;22.48;100.00
74905;BME280;63465;50.862;6.220;2023-10-09T11:42:23;100342.22;;;22.54;100.00
74905;BME280;63465;50.862;6.220;2023-10-09T11:45:24;100346.44;;;22.37;100.00
74905;BME280;63465;50.862;6.220;2023-10-09T11:47:57;100346.03;;;22.41;100.00
74905;BME280;63465;50.862;6.220;2023-10-09T11:53:08;100337.97;;;22.51;100.00
74905;BME280;63465;50.862;6.220;2023-10-09T11:55:36;100341.44;;;22.32;100.00
74905;BME280;63465;50.862;6.220;2023-10-09T11:58:02;100341.41;;;22.01;100.00
74905;BME280;63465;50.862;6.220;2023-10-09T12:00:31;100335.03;;;22.33;100.00
74905;BME280;63465;50.862;6.220;2023-10-09T12:03:10;100339.38;;;22.46;100.00
74905;BME280;63465;50.862;6.220;2023-10-09T12:05:36;100335.97;;;22.22;100.00
74905;BME280;63465;50.862;6.220;2023-10-09T12:08:03;100337.75;;;22.12;100.00
74905;BME280;63465;50.862;6.220;2023-10-09T12:10:34;100331.22;;;22.15;100.00
74905;BME280;63465;50.862;6.220;2023-10-09T12:12:59;100318.72;;;22.23;100.00
74905;BME280;63465;50.862;6.220;2023-10-09T12:15:29;100338.00;;;22.30;100.00
74905;BME280;63465;50.862;6.220;2023-10-09T12:18:06;100322.88;;;22.27;100.00
74905;BME280;63465;50.862;6.220;2023-10-09T12:20:35;100326.91;;;22.02;100.00
74905;BME280;63465;50.862;6.220;2023-10-09T12:23:02;100327.00;;;22.53;100.00
74905;BME280;63465;50.862;6.220;2023-10-09T12:25:34;100331.94;;;22.17;100.00
74905;BME280;63465;50.862;6.220;2023-10-09T12:28:01;100332.34;;;22.12;100.00
74905;BME280;63465;50.862;6.220;2023-10-09T12:30:30;100331.16;;;22.05;100.00
74905;BME280;63465;50.862;6.220;2023-10-09T12:32:57;100329.66;;;22.12;100.00
74905;BME280;63465;50.862;6.220;2023-10-09T12:35:24;100335.56;;;22.27;100.00
74905;BME280;63465;50.862;6.220;2023-10-09T12:37:53;100325.28;;;22.21;100.00
74905;BME280;63465;50.862;6.220;2023-10-09T12:40:23;100329.47;;;22.04;100.00
74905;BME280;63465;50.862;6.220;2023-10-09T12:42:54;100323.03;;;22.26;100.00
74905;BME280;63465;50.862;6.220;2023-10-09T12:45:21;100326.38;;;22.08;100.00
74905;BME280;63465;50.862;6.220;2023-10-09T12:47:54;100315.84;;;21.84;100.00
74905;BME280;63465;50.862;6.220;2023-10-09T12:50:26;100319.34;;;21.96;100.00
74905;BME280;63465;50.862;6.220;2023-10-09T12:52:58;100312.09;;;22.06;100.00
74905;BME280;63465;50.862;6.220;2023-10-09T12:55:28;100316.56;;;21.86;100.00
74905;BME280;63465;50.862;6.220;2023-10-09T12:58:00;100331.53;;;21.90;100.00
74905;BME280;63465;50.862;6.220;2023-10-09T13:00:27;100330.28;;;21.95;100.00
74905;BME280;63465;50.862;6.220;2023-10-09T13:02:57;100333.00;;;22.25;100.00
74905;BME280;63465;50.862;6.220;2023-10-09T13:05:26;100323.69;;;22.18;100.00
74905;BME280;63465;50.862;6.220;2023-10-09T13:07:52;100330.16;;;22.27;100.00
74905;BME280;63465;50.862;6.220;2023-10-09T13:10:26;100340.94;;;21.96;100.00
74905;BME280;63465;50.862;6.220;2023-10-09T13:12:56;100339.34;;;22.15;100.00
74905;BME280;63465;50.862;6.220;2023-10-09T13:15:22;100341.97;;;22.05;100.00
74905;BME280;63465;50.862;6.220;2023-10-09T13:17:47;100350.22;;;22.03;100.00
74905;BME280;63465;50.862;6.220;2023-10-09T13:20:12;100343.03;;;22.14;100.00
74905;BME280;63465;50.862;6.220;2023-10-09T13:22:38;100346.25;;;22.07;100.00
74905;BME280;63465;50.862;6.220;2023-10-09T13:25:05;100345.59;;;21.94;100.00